Etusivu
METAR-TAF:

METAR-TAF

Lentoasemat :

Benslimane, Marokko

Leveyspiiri: 33-39-20N, Pituuspiiri: 007-13-17W, korkeus merenpinnasta: 191 m

Tämänhetkinen sää

Tämä raportti tehtiin 1 tunti ja 0 minuuttia sitten, kello 14.00 UTC
Tuuli 8 kn lännestä/luoteesta, vaihdellen lounaan ja pohjoisen välillä
Lämpötila 29°C
Kosteus 58%
Ilmanpaine 1011 hPa
Näkyvyys: 8000 m
Muutamia pilviä 1600 ft:n korkeudessa

METAR: GMMB 281400Z 30008KT 220V010 8000 FEW016 29/20 Q1011 NOSIG

Aika: 16:00 (15:00 UTC)


TAF: puuttuu

Säähavainnot ja -ennusteet yli 4000 lentoasemalta (METAR- ja TAF-raportit).

Käytössä olevat sääasemat on merkitty karttaan keltaisilla ja punaisilla pisteillä.

Aseta hiiri pisteen päälle nähdäksesi sääaseman nimen.

Klikkaa sitten nähdäksesi säähavainnot ja -ennusteet.

Kartan vaihtaminen: klikkaa mustalla rastilla varustettuja vihreitä pisteitä, niin voit zoomata sisään; viivalla varustettua vihreää pistettä, niin voit zoomata ulos tai vihreitä nuolia, niin pääset viereisille kartoille.


METAR-TAF: